createdAt,value
2023-09-17T00:01:37.170Z,9.07
2023-09-17T00:04:08.243Z,8.88
2023-09-17T00:06:40.572Z,8.73
2023-09-17T00:09:09.378Z,9.10
2023-09-17T00:11:38.301Z,8.93
2023-09-17T00:14:07.278Z,9.20
2023-09-17T00:16:35.978Z,9.00
2023-09-17T00:19:05.429Z,9.32
2023-09-17T00:21:35.695Z,8.68
2023-09-17T00:24:06.237Z,9.77
2023-09-17T00:26:35.420Z,10.15
2023-09-17T00:29:04.908Z,9.18
2023-09-17T00:31:33.525Z,9.77
2023-09-17T00:34:04.340Z,10.18
2023-09-17T00:36:32.971Z,9.60
2023-09-17T00:39:01.293Z,9.60
2023-09-17T00:41:30.990Z,9.95
2023-09-17T00:44:00.037Z,10.27
2023-09-17T00:46:30.511Z,10.05
2023-09-17T00:48:59.937Z,9.63
2023-09-17T00:51:29.248Z,9.10
2023-09-17T00:54:01.741Z,10.02
2023-09-17T00:56:31.826Z,10.27
2023-09-17T00:59:00.245Z,10.50
2023-09-17T01:01:31.012Z,10.60
2023-09-17T01:04:01.076Z,10.43
2023-09-17T01:06:31.405Z,10.60
2023-09-17T01:09:00.738Z,10.40
2023-09-17T01:11:29.930Z,11.13
2023-09-17T01:14:09.243Z,10.98
2023-09-17T01:16:38.529Z,10.82
2023-09-17T01:19:07.966Z,9.95
2023-09-17T01:21:40.666Z,9.88
2023-09-17T01:24:22.906Z,10.15
2023-09-17T01:27:04.952Z,9.93
2023-09-17T01:29:34.580Z,9.88
2023-09-17T01:32:05.000Z,9.07
2023-09-17T01:34:34.706Z,9.93
2023-09-17T01:37:10.368Z,9.63
2023-09-17T01:39:44.299Z,10.88
2023-09-17T01:42:18.609Z,10.95
2023-09-17T01:44:48.977Z,11.60
2023-09-17T01:47:19.492Z,11.88
2023-09-17T01:49:49.025Z,12.02
2023-09-17T01:52:23.552Z,12.65
2023-09-17T01:54:52.941Z,10.80
2023-09-17T01:57:23.479Z,11.15
2023-09-17T01:59:52.073Z,11.13
2023-09-17T02:02:21.088Z,10.60
2023-09-17T02:04:50.751Z,9.23
2023-09-17T02:07:19.578Z,9.25
2023-09-17T02:09:48.146Z,8.70
2023-09-17T02:12:16.955Z,8.48
2023-09-17T02:14:49.381Z,10.00
2023-09-17T02:17:20.726Z,9.40
2023-09-17T02:19:55.464Z,8.85
2023-09-17T02:22:24.232Z,9.38
2023-09-17T02:24:53.634Z,9.98
2023-09-17T02:27:22.456Z,10.52
2023-09-17T02:29:53.616Z,10.55
2023-09-17T02:32:23.168Z,10.60
2023-09-17T02:34:52.055Z,10.43
2023-09-17T02:37:24.062Z,9.85
2023-09-17T02:39:52.966Z,10.15
2023-09-17T02:42:21.386Z,9.80
2023-09-17T02:44:50.104Z,10.32
2023-09-17T02:47:20.707Z,9.65
2023-09-17T02:49:49.157Z,9.40
2023-09-17T02:52:19.861Z,10.52
2023-09-17T02:54:49.154Z,10.93
2023-09-17T02:57:18.993Z,10.18
2023-09-17T02:59:47.569Z,9.85
2023-09-17T03:02:16.451Z,11.20
2023-09-17T03:04:46.371Z,9.68
2023-09-17T03:07:15.979Z,10.57
2023-09-17T03:09:45.273Z,11.50
2023-09-17T03:12:14.179Z,11.98
2023-09-17T03:14:42.556Z,12.80
2023-09-17T03:17:17.563Z,13.20
2023-09-17T03:19:47.574Z,12.77
2023-09-17T03:22:18.841Z,12.77
2023-09-17T03:25:03.197Z,12.27
2023-09-17T03:27:35.007Z,12.55
2023-09-17T03:30:07.858Z,13.77
2023-09-17T03:32:43.513Z,14.57
2023-09-17T03:35:19.846Z,11.95
2023-09-17T03:37:48.622Z,10.80
2023-09-17T03:40:18.547Z,9.68
2023-09-17T03:42:47.617Z,11.27
2023-09-17T03:45:16.642Z,10.95
2023-09-17T03:47:48.964Z,10.05
2023-09-17T03:50:21.669Z,10.65
2023-09-17T03:52:55.253Z,10.73
2023-09-17T03:55:25.275Z,10.07
2023-09-17T03:57:54.289Z,11.65
2023-09-17T04:00:25.182Z,13.02
2023-09-17T04:02:56.237Z,11.65
2023-09-17T04:05:30.116Z,12.35
2023-09-17T04:07:59.170Z,13.18
2023-09-17T04:10:27.811Z,12.55
2023-09-17T04:12:56.514Z,12.32
2023-09-17T04:15:25.080Z,11.95
2023-09-17T04:17:54.785Z,11.98
2023-09-17T04:20:24.945Z,10.75
2023-09-17T04:22:57.737Z,9.68
2023-09-17T04:25:27.566Z,9.55
2023-09-17T04:27:57.119Z,10.32
2023-09-17T04:30:28.315Z,10.75
2023-09-17T04:32:57.685Z,11.13
2023-09-17T04:35:26.934Z,11.10
2023-09-17T04:37:59.424Z,10.15
2023-09-17T04:40:30.089Z,10.10
2023-09-17T04:42:58.998Z,10.18
2023-09-17T04:45:35.777Z,10.73
2023-09-17T04:48:05.838Z,9.70
2023-09-17T04:50:35.374Z,9.70
2023-09-17T04:53:07.963Z,9.55
2023-09-17T04:55:40.794Z,9.65
2023-09-17T04:58:13.293Z,9.88
2023-09-17T05:00:42.444Z,9.80
2023-09-17T05:03:12.038Z,9.73
2023-09-17T05:05:41.117Z,10.13
2023-09-17T05:08:12.278Z,9.77
2023-09-17T05:10:42.271Z,10.20
2023-09-17T05:13:11.476Z,12.90
2023-09-17T05:15:40.504Z,12.52
2023-09-17T05:18:12.310Z,16.27
2023-09-17T05:20:43.370Z,16.33
2023-09-17T05:23:14.146Z,15.45
2023-09-17T05:25:43.914Z,15.48
2023-09-17T05:28:12.774Z,13.77
2023-09-17T05:30:42.323Z,15.00
2023-09-17T05:33:11.965Z,15.07
2023-09-17T05:35:40.630Z,17.30
2023-09-17T05:38:10.138Z,18.58
2023-09-17T05:40:40.232Z,22.80
2023-09-17T05:43:08.623Z,23.27
2023-09-17T05:45:37.532Z,22.83
2023-09-17T05:48:07.017Z,20.15
2023-09-17T05:50:36.180Z,16.60
2023-09-17T05:53:04.752Z,15.57
2023-09-17T05:55:34.629Z,16.55
2023-09-17T05:58:05.936Z,15.55
2023-09-17T06:00:34.690Z,15.52
2023-09-17T06:03:04.418Z,14.50
2023-09-17T06:05:33.377Z,14.10
2023-09-17T06:08:03.596Z,14.90
2023-09-17T06:10:32.435Z,14.27
2023-09-17T06:13:01.229Z,13.80
2023-09-17T06:15:36.098Z,13.00
2023-09-17T06:18:04.741Z,12.75
2023-09-17T06:20:33.482Z,13.82
2023-09-17T06:23:02.200Z,12.10
2023-09-17T06:25:31.786Z,12.75
2023-09-17T06:28:00.576Z,13.25
2023-09-17T06:30:29.340Z,12.13
2023-09-17T06:32:59.497Z,11.75
2023-09-17T06:37:59.605Z,10.27
2023-09-17T06:40:28.528Z,9.82
2023-09-17T06:42:57.242Z,10.55
2023-09-17T06:45:28.822Z,10.00
2023-09-17T06:48:02.085Z,9.50
2023-09-17T06:50:30.636Z,8.38
2023-09-17T06:52:59.459Z,8.15
2023-09-17T06:55:33.177Z,8.45
2023-09-17T06:58:02.736Z,8.15
2023-09-17T07:00:31.538Z,7.47
2023-09-17T07:03:01.553Z,7.65
2023-09-17T07:05:30.315Z,7.75
2023-09-17T07:07:59.184Z,7.20
2023-09-17T07:10:31.037Z,6.80
2023-09-17T07:13:00.835Z,6.68
2023-09-17T07:15:29.976Z,6.60
2023-09-17T07:17:58.929Z,6.80
2023-09-17T07:20:31.079Z,7.38
2023-09-17T07:22:59.969Z,6.45
2023-09-17T07:25:29.342Z,7.07
2023-09-17T07:27:59.307Z,7.40
2023-09-17T07:30:30.106Z,8.50
2023-09-17T07:35:30.016Z,7.22
2023-09-17T07:37:58.390Z,8.43
2023-09-17T07:40:27.892Z,8.13
2023-09-17T07:42:59.359Z,7.78
2023-09-17T07:45:31.342Z,8.52
2023-09-17T07:48:05.498Z,9.00
2023-09-17T07:50:38.439Z,9.63
2023-09-17T07:53:08.561Z,10.20
2023-09-17T07:55:36.892Z,9.60
2023-09-17T07:58:05.946Z,10.00
2023-09-17T08:00:35.170Z,11.15
2023-09-17T08:03:06.410Z,11.18
2023-09-17T08:08:08.481Z,11.63
2023-09-17T08:10:38.983Z,11.80
2023-09-17T08:13:08.967Z,11.23
2023-09-17T08:15:41.035Z,12.07
2023-09-17T08:18:10.418Z,12.15
2023-09-17T08:20:42.609Z,11.70
2023-09-17T08:23:12.443Z,10.38
2023-09-17T08:25:42.685Z,10.43
2023-09-17T08:28:16.382Z,10.80
2023-09-17T08:30:47.178Z,10.95
2023-09-17T08:33:19.504Z,11.48
2023-09-17T08:35:51.012Z,10.70
2023-09-17T08:38:21.446Z,10.38
2023-09-17T08:40:50.730Z,9.60
2023-09-17T08:43:21.220Z,11.20
2023-09-17T08:45:53.717Z,9.40
2023-09-17T08:48:24.079Z,9.77
2023-09-17T08:50:56.734Z,9.55
2023-09-17T08:53:30.977Z,9.07
2023-09-17T08:56:02.733Z,9.32
2023-09-17T08:58:37.308Z,9.05
2023-09-17T09:01:08.724Z,9.10
2023-09-17T09:03:40.207Z,9.02
2023-09-17T09:06:13.522Z,10.25
2023-09-17T09:08:46.065Z,9.70
2023-09-17T09:11:16.031Z,9.25
2023-09-17T09:13:46.390Z,9.13
2023-09-17T09:16:15.564Z,9.30
2023-09-17T09:18:47.206Z,9.43
2023-09-17T09:21:17.301Z,9.52
2023-09-17T09:23:49.886Z,10.60
2023-09-17T09:26:18.930Z,10.02
2023-09-17T09:28:47.571Z,10.13
2023-09-17T09:31:16.430Z,10.13
2023-09-17T09:33:46.249Z,10.25
2023-09-17T09:36:16.667Z,10.70
2023-09-17T09:38:45.109Z,10.70
2023-09-17T09:41:14.396Z,10.65
2023-09-17T09:43:45.135Z,10.18
2023-09-17T09:46:14.927Z,10.43
2023-09-17T09:48:43.531Z,10.05
2023-09-17T09:51:11.940Z,10.40
2023-09-17T09:53:44.789Z,10.23
2023-09-17T09:56:13.527Z,10.38
2023-09-17T09:58:43.379Z,10.10
2023-09-17T10:01:12.062Z,9.60
2023-09-17T10:03:42.233Z,9.50
2023-09-17T10:06:11.412Z,9.93
2023-09-17T10:08:44.154Z,9.55
2023-09-17T10:11:14.305Z,9.10
2023-09-17T10:13:43.816Z,9.32
2023-09-17T10:16:12.399Z,9.43
2023-09-17T10:18:43.572Z,10.02
2023-09-17T10:21:13.421Z,8.98
2023-09-17T10:23:44.153Z,9.00
2023-09-17T10:26:13.346Z,8.98
2023-09-17T10:28:43.588Z,9.40
2023-09-17T10:31:13.466Z,8.57
2023-09-17T10:33:45.729Z,8.88
2023-09-17T10:36:15.500Z,9.10
2023-09-17T10:38:48.946Z,8.93
2023-09-17T10:41:23.881Z,8.60
2023-09-17T10:43:55.202Z,8.77
2023-09-17T10:46:26.603Z,8.73
2023-09-17T10:48:59.203Z,8.75
2023-09-17T10:51:29.144Z,8.60
2023-09-17T10:53:59.424Z,8.70
2023-09-17T10:56:28.833Z,8.80
2023-09-17T10:58:57.829Z,8.60
2023-09-17T11:01:32.289Z,8.43
2023-09-17T11:04:06.713Z,8.43
2023-09-17T11:06:39.463Z,8.20
2023-09-17T11:09:12.451Z,7.85
2023-09-17T11:11:42.138Z,7.80
2023-09-17T11:14:13.682Z,8.00
2023-09-17T11:16:44.273Z,8.50
2023-09-17T11:19:15.610Z,8.13
2023-09-17T11:22:09.601Z,7.97
2023-09-17T11:24:39.324Z,7.85
2023-09-17T11:27:10.111Z,8.50
2023-09-17T11:29:43.624Z,7.90
2023-09-17T11:32:14.225Z,7.90
2023-09-17T11:34:47.161Z,7.87
2023-09-17T11:37:18.176Z,7.55
2023-09-17T11:39:55.289Z,7.70
2023-09-17T11:42:28.036Z,8.15
2023-09-17T11:44:58.170Z,8.32
2023-09-17T11:47:28.324Z,8.20
2023-09-17T11:50:00.409Z,7.93
2023-09-17T11:52:34.550Z,8.30
2023-09-17T11:55:23.970Z,8.88
2023-09-17T11:57:52.250Z,8.63
2023-09-17T12:00:31.377Z,8.68
2023-09-17T12:03:01.373Z,9.10
2023-09-17T12:05:33.366Z,8.68
2023-09-17T12:08:05.608Z,8.73
2023-09-17T12:10:51.389Z,8.30
2023-09-17T12:13:22.206Z,7.35
2023-09-17T12:15:55.253Z,7.50
2023-09-17T12:18:24.384Z,8.63
2023-09-17T12:20:58.591Z,8.20
2023-09-17T12:23:48.382Z,7.95
2023-09-17T12:26:58.446Z,8.27
2023-09-17T12:29:28.921Z,7.55
2023-09-17T12:32:00.073Z,7.47
2023-09-17T12:34:31.762Z,7.25
2023-09-17T12:37:03.834Z,6.68
2023-09-17T12:39:35.286Z,7.33
2023-09-17T12:42:05.327Z,7.50
2023-09-17T12:44:38.346Z,7.55
2023-09-17T12:47:07.958Z,7.75
2023-09-17T12:49:37.201Z,7.50
2023-09-17T12:52:07.738Z,6.60
2023-09-17T12:54:37.520Z,7.33
2023-09-17T12:57:06.891Z,7.65
2023-09-17T12:59:39.043Z,7.80
2023-09-17T13:02:09.565Z,7.50
2023-09-17T13:04:39.835Z,7.40
2023-09-17T13:07:18.426Z,7.13
2023-09-17T13:09:50.936Z,7.60
2023-09-17T13:12:20.411Z,8.05
2023-09-17T13:14:53.373Z,7.80
2023-09-17T13:17:30.536Z,7.88
2023-09-17T13:20:00.817Z,8.05
2023-09-17T13:22:31.463Z,8.13
2023-09-17T13:25:03.411Z,8.43
2023-09-17T13:27:36.896Z,8.38
2023-09-17T13:30:06.672Z,8.13
2023-09-17T13:32:36.904Z,8.20
2023-09-17T13:35:11.919Z,8.57
2023-09-17T13:37:42.339Z,8.60
2023-09-17T13:40:13.313Z,8.50
2023-09-17T13:42:42.023Z,8.35
2023-09-17T13:45:15.186Z,7.82
2023-09-17T13:47:43.949Z,8.70
2023-09-17T13:50:12.666Z,7.97
2023-09-17T13:52:44.555Z,8.40
2023-09-17T13:55:16.141Z,8.45
2023-09-17T13:57:45.411Z,8.57
2023-09-17T14:00:16.470Z,8.57
2023-09-17T14:02:45.321Z,8.18
2023-09-17T14:05:14.586Z,8.05
2023-09-17T14:07:45.239Z,8.07
2023-09-17T14:10:16.958Z,7.85
2023-09-17T14:12:49.010Z,8.23
2023-09-17T14:15:17.945Z,8.80
2023-09-17T14:17:47.925Z,8.77
2023-09-17T14:20:21.437Z,9.18
2023-09-17T14:22:51.325Z,9.43
2023-09-17T14:25:22.735Z,8.93
2023-09-17T14:27:53.134Z,9.13
2023-09-17T14:30:23.856Z,9.40
2023-09-17T14:32:54.356Z,9.32
2023-09-17T14:35:25.387Z,9.80
2023-09-17T14:37:55.692Z,9.02
2023-09-17T14:40:27.821Z,9.10
2023-09-17T14:42:56.937Z,9.90
2023-09-17T14:45:25.502Z,9.90
2023-09-17T14:47:58.595Z,9.50
2023-09-17T14:50:28.058Z,9.52
2023-09-17T14:52:57.137Z,9.55
2023-09-17T14:55:27.306Z,9.43
2023-09-17T14:57:57.289Z,9.55
2023-09-17T15:00:27.980Z,9.32
2023-09-17T15:02:57.378Z,9.57
2023-09-17T15:05:29.780Z,9.55
2023-09-17T15:08:00.343Z,9.63
2023-09-17T15:10:32.962Z,9.90
2023-09-17T15:13:02.193Z,9.57
2023-09-17T15:15:32.462Z,9.77
2023-09-17T15:18:03.174Z,9.77
2023-09-17T15:20:35.411Z,9.77
2023-09-17T15:23:05.094Z,9.77
2023-09-17T15:25:41.166Z,9.38
2023-09-17T15:28:11.947Z,10.00
2023-09-17T15:30:48.052Z,10.15
2023-09-17T15:33:19.374Z,10.65
2023-09-17T15:35:48.326Z,10.38
2023-09-17T15:38:19.027Z,9.70
2023-09-17T15:40:54.716Z,9.70
2023-09-17T15:43:26.485Z,9.82
2023-09-17T15:45:55.663Z,9.90
2023-09-17T15:48:26.382Z,9.43
2023-09-17T15:51:02.687Z,10.05
2023-09-17T15:53:34.488Z,9.90
2023-09-17T15:56:07.387Z,10.20
2023-09-17T15:58:40.590Z,9.82
2023-09-17T16:01:12.094Z,10.32
2023-09-17T16:03:44.820Z,9.93
2023-09-17T16:06:15.701Z,9.27
2023-09-17T16:08:46.485Z,10.20
2023-09-17T16:11:18.153Z,9.77
2023-09-17T16:13:49.058Z,10.00
2023-09-17T16:16:18.158Z,9.63
2023-09-17T16:18:48.778Z,9.38
2023-09-17T16:21:18.926Z,10.02
2023-09-17T16:23:50.702Z,9.93
2023-09-17T16:26:24.027Z,9.90
2023-09-17T16:28:53.525Z,9.68
2023-09-17T16:31:24.882Z,9.40
2023-09-17T16:36:26.584Z,9.70
2023-09-17T16:38:58.615Z,10.25
2023-09-17T16:41:31.435Z,10.15
2023-09-17T16:44:06.587Z,9.63
2023-09-17T16:46:38.687Z,10.45
2023-09-17T16:51:37.894Z,9.90
2023-09-17T16:54:07.768Z,9.80
2023-09-17T16:56:40.356Z,10.13
2023-09-17T16:59:10.668Z,10.38
2023-09-17T17:01:40.945Z,10.80
2023-09-17T17:04:10.251Z,11.27
2023-09-17T17:06:39.549Z,10.57
2023-09-17T17:09:08.669Z,11.02
2023-09-17T17:11:39.774Z,10.43
2023-09-17T17:14:09.045Z,11.32
2023-09-17T17:16:40.280Z,11.35
2023-09-17T17:19:09.572Z,11.35
2023-09-17T17:21:41.258Z,12.43
2023-09-17T17:24:13.028Z,13.75
2023-09-17T17:26:44.245Z,13.73
2023-09-17T17:29:16.513Z,13.50
2023-09-17T17:31:47.059Z,13.57
2023-09-17T17:34:16.612Z,13.35
2023-09-17T17:36:45.780Z,12.77
2023-09-17T17:39:14.945Z,13.30
2023-09-17T17:41:45.626Z,12.68
2023-09-17T17:44:17.068Z,13.25
2023-09-17T17:46:46.685Z,14.23
2023-09-17T17:49:16.027Z,13.27
2023-09-17T17:51:45.524Z,13.65
2023-09-17T17:54:14.594Z,13.23
2023-09-17T17:56:47.269Z,14.20
2023-09-17T17:59:17.494Z,14.40
2023-09-17T18:01:46.734Z,14.27
2023-09-17T18:04:16.390Z,13.95
2023-09-17T18:06:46.638Z,14.10
2023-09-17T18:09:16.724Z,14.57
2023-09-17T18:11:48.858Z,14.90
2023-09-17T18:14:18.368Z,15.17
2023-09-17T18:16:48.924Z,14.85
2023-09-17T18:19:18.998Z,14.80
2023-09-17T18:21:49.420Z,14.37
2023-09-17T18:24:19.014Z,14.55
2023-09-17T18:26:51.098Z,14.45
2023-09-17T18:29:28.725Z,14.00
2023-09-17T18:32:00.314Z,14.02
2023-09-17T18:34:30.772Z,12.95
2023-09-17T18:36:59.818Z,13.50
2023-09-17T18:39:32.308Z,13.50
2023-09-17T18:42:06.250Z,12.68
2023-09-17T18:44:37.954Z,13.38
2023-09-17T18:47:11.461Z,12.75
2023-09-17T18:49:46.407Z,12.43
2023-09-17T18:52:18.816Z,13.10
2023-09-17T18:54:51.727Z,12.60
2023-09-17T18:57:24.286Z,12.10
2023-09-17T18:59:57.758Z,11.80
2023-09-17T19:02:29.404Z,12.38
2023-09-17T19:04:58.452Z,11.73
2023-09-17T19:07:30.927Z,11.95
2023-09-17T19:09:59.893Z,11.70
2023-09-17T19:12:30.841Z,12.02
2023-09-17T19:15:01.923Z,11.45
2023-09-17T19:17:34.009Z,11.32
2023-09-17T19:20:03.156Z,11.35
2023-09-17T19:22:36.266Z,11.57
2023-09-17T19:25:08.330Z,11.00
2023-09-17T19:27:41.710Z,11.45
2023-09-17T19:30:16.753Z,11.48
2023-09-17T19:32:47.680Z,10.48
2023-09-17T19:35:17.267Z,11.35
2023-09-17T19:37:48.655Z,11.93
2023-09-17T19:40:18.569Z,10.73
2023-09-17T19:42:51.611Z,11.05
2023-09-17T19:45:24.174Z,11.05
2023-09-17T19:47:55.176Z,11.07
2023-09-17T19:50:25.220Z,11.07
2023-09-17T19:52:54.858Z,11.20
2023-09-17T19:55:24.213Z,10.85
2023-09-17T19:57:55.145Z,11.00
2023-09-17T20:00:24.358Z,10.93
2023-09-17T20:02:54.694Z,10.77
2023-09-17T20:05:24.184Z,10.93
2023-09-17T20:07:54.701Z,11.30
2023-09-17T20:10:24.835Z,10.82
2023-09-17T20:12:55.349Z,10.80
2023-09-17T20:15:29.336Z,11.23
2023-09-17T20:17:59.517Z,10.60
2023-09-17T20:20:34.238Z,11.13
2023-09-17T20:23:06.280Z,10.40
2023-09-17T20:25:35.839Z,10.65
2023-09-17T20:28:10.382Z,10.75
2023-09-17T20:30:40.706Z,10.40
2023-09-17T20:33:12.726Z,10.52
2023-09-17T20:35:43.415Z,10.10
2023-09-17T20:38:14.374Z,10.20
2023-09-17T20:40:44.124Z,10.07
2023-09-17T20:43:15.938Z,9.40
2023-09-17T20:45:46.459Z,9.70
2023-09-17T20:48:16.746Z,9.38
2023-09-17T20:50:47.518Z,9.65
2023-09-17T20:53:19.861Z,8.75
2023-09-17T20:55:48.758Z,9.25
2023-09-17T20:58:19.046Z,9.30
2023-09-17T21:00:48.941Z,9.00
2023-09-17T21:03:19.638Z,9.10
2023-09-17T21:05:48.757Z,9.20
2023-09-17T21:08:23.474Z,8.13
2023-09-17T21:10:53.340Z,9.27
2023-09-17T21:13:24.840Z,8.35
2023-09-17T21:15:55.277Z,7.93
2023-09-17T21:18:26.158Z,8.52
2023-09-17T21:20:54.666Z,8.25
2023-09-17T21:23:25.241Z,7.88
2023-09-17T21:25:56.002Z,7.90
2023-09-17T21:28:26.637Z,8.00
2023-09-17T21:30:56.812Z,8.03
2023-09-17T21:33:27.286Z,7.80
2023-09-17T21:35:57.768Z,8.18
2023-09-17T21:38:28.424Z,8.13
2023-09-17T21:41:00.695Z,7.60
2023-09-17T21:43:35.716Z,7.82
2023-09-17T21:46:05.838Z,7.57
2023-09-17T21:48:39.569Z,7.95
2023-09-17T21:51:09.008Z,7.60
2023-09-17T21:53:37.341Z,7.55
2023-09-17T21:56:07.980Z,7.50
2023-09-17T21:58:40.165Z,7.85
2023-09-17T22:01:10.352Z,7.68
2023-09-17T22:03:40.368Z,7.55
2023-09-17T22:06:09.456Z,7.78
2023-09-17T22:08:39.957Z,7.47
2023-09-17T22:11:10.852Z,7.68
2023-09-17T22:13:47.734Z,7.63
2023-09-17T22:16:16.491Z,7.60
2023-09-17T22:18:47.295Z,7.70
2023-09-17T22:21:18.200Z,7.60
2023-09-17T22:23:49.097Z,7.67
2023-09-17T22:26:18.200Z,7.53
2023-09-17T22:28:50.884Z,7.82
2023-09-17T22:31:22.549Z,7.93
2023-09-17T22:34:00.245Z,8.20
2023-09-17T22:36:30.370Z,7.95
2023-09-17T22:38:58.964Z,8.20
2023-09-17T22:41:28.467Z,8.45
2023-09-17T22:44:16.144Z,8.10
2023-09-17T22:46:45.631Z,7.82
2023-09-17T22:49:17.922Z,8.25
2023-09-17T22:51:48.398Z,8.18
2023-09-17T22:54:18.990Z,8.15
2023-09-17T22:56:49.874Z,7.95
2023-09-17T22:59:22.764Z,8.07
2023-09-17T23:01:52.277Z,8.00
2023-09-17T23:04:21.710Z,7.70
2023-09-17T23:06:51.556Z,8.05
2023-09-17T23:09:21.720Z,8.50
2023-09-17T23:11:49.991Z,7.88
2023-09-17T23:14:25.680Z,8.00
2023-09-17T23:16:55.300Z,8.50
2023-09-17T23:19:25.427Z,8.55
2023-09-17T23:21:55.083Z,8.70
2023-09-17T23:24:24.006Z,8.55
2023-09-17T23:26:54.554Z,9.02
2023-09-17T23:29:26.083Z,8.63
2023-09-17T23:31:54.942Z,8.38
2023-09-17T23:34:25.275Z,8.85
2023-09-17T23:36:54.534Z,8.43
2023-09-17T23:39:23.103Z,8.77
2023-09-17T23:41:57.679Z,8.95
2023-09-17T23:44:27.757Z,8.80
2023-09-17T23:46:56.562Z,8.40
2023-09-17T23:49:25.510Z,8.85
2023-09-17T23:51:54.212Z,8.35
2023-09-17T23:54:23.034Z,8.68
2023-09-17T23:56:52.634Z,8.20
2023-09-17T23:59:22.587Z,8.55
